Rich, Mississippi
Current Conditions -  °F | °C
As of 4:15 PM on Sunday 23 Nov 2014 (Local Time) from KCKM Reporting Station
Overcast Overcast  
Wind Chill: 61°   Ceiling: 1000
Heat Index: 61°   Visibility: 10mi
Dew Point: 61°   Wind: 14mph
Humidity: 100%   Direction: 210°SSW
Pressure: 29.43"   Gusts: NA
Location:  34.3919°N, 90.4874°W
Report Text: KCKM 232215Z AUTO 21012KT 10SM BKN010 BKN013 OVC070 16/16 A2943 RMK AO1
Loading
Personal Weather Stations






























Interactive Weather Map New forecast layout! Learn more

10-Day Weather Forecast

Advertisements
Track Severe Weather on mobile